createdAt,value
2018-03-16T00:02:16.788Z,4.60
2018-03-16T00:04:44.344Z,4.60
2018-03-16T00:07:11.828Z,4.60
2018-03-16T00:09:39.304Z,4.60
2018-03-16T00:12:06.789Z,4.50
2018-03-16T00:14:35.025Z,4.60
2018-03-16T00:17:02.522Z,4.40
2018-03-16T00:19:30.769Z,4.50
2018-03-16T00:21:58.254Z,4.40
2018-03-16T00:24:26.492Z,4.50
2018-03-16T00:26:53.994Z,4.50
2018-03-16T00:29:22.272Z,4.60
2018-03-16T00:31:50.520Z,4.50
2018-03-16T00:34:18.600Z,4.50
2018-03-16T00:36:46.084Z,4.40
2018-03-16T00:39:14.228Z,4.70
2018-03-16T00:41:41.713Z,4.80
2018-03-16T00:44:09.943Z,4.50
2018-03-16T00:46:37.422Z,4.30
2018-03-16T00:49:04.900Z,4.50
2018-03-16T00:51:33.147Z,4.40
2018-03-16T00:54:00.621Z,4.30
2018-03-16T00:56:28.095Z,4.50
2018-03-16T00:58:55.568Z,4.40
2018-03-16T01:01:23.067Z,4.40
2018-03-16T01:03:50.560Z,4.60
2018-03-16T01:06:18.036Z,4.40
2018-03-16T01:08:45.499Z,4.40
2018-03-16T01:11:12.990Z,4.50
2018-03-16T01:13:40.472Z,4.60
2018-03-16T01:19:01.998Z,4.40
2018-03-16T01:21:29.480Z,4.50
2018-03-16T01:23:56.954Z,4.50
2018-03-16T01:26:25.206Z,4.60
2018-03-16T01:28:52.688Z,4.50
2018-03-16T01:31:20.927Z,4.40
2018-03-16T01:33:48.411Z,4.40
2018-03-16T01:36:15.895Z,4.30
2018-03-16T01:38:44.154Z,4.30
2018-03-16T01:41:12.404Z,4.30
2018-03-16T01:43:39.874Z,4.50
2018-03-16T01:46:07.352Z,4.40
2018-03-16T01:48:35.590Z,4.60
2018-03-16T01:51:03.071Z,4.50
2018-03-16T01:53:31.324Z,4.60
2018-03-16T01:55:58.812Z,4.50
2018-03-16T01:58:26.288Z,4.50
2018-03-16T02:00:54.543Z,4.50
2018-03-16T02:03:22.175Z,4.50
2018-03-16T02:05:49.659Z,4.60
2018-03-16T02:08:17.130Z,4.60
2018-03-16T02:10:45.377Z,4.70
2018-03-16T02:13:12.847Z,4.80
2018-03-16T02:15:40.322Z,4.80
2018-03-16T02:18:08.582Z,4.80
2018-03-16T02:20:36.058Z,4.80
2018-03-16T02:23:03.533Z,4.90
2018-03-16T02:25:31.013Z,4.60
2018-03-16T02:27:58.490Z,4.80
2018-03-16T02:30:25.960Z,4.70
2018-03-16T02:32:53.437Z,4.70
2018-03-16T02:35:20.911Z,4.60
2018-03-16T02:37:49.164Z,4.70
2018-03-16T02:40:16.644Z,4.60
2018-03-16T02:42:44.126Z,4.70
2018-03-16T02:45:11.604Z,4.50
2018-03-16T02:47:39.091Z,4.40
2018-03-16T02:50:06.564Z,4.30
2018-03-16T02:52:34.041Z,4.50
2018-03-16T02:55:02.283Z,4.50
2018-03-16T02:57:29.775Z,4.40
2018-03-16T02:59:58.012Z,4.40
2018-03-16T03:02:25.492Z,4.30
2018-03-16T03:04:52.968Z,4.30
2018-03-16T03:07:21.215Z,4.40
2018-03-16T03:09:48.724Z,4.60
2018-03-16T03:12:16.211Z,4.30
2018-03-16T03:14:43.679Z,4.50
2018-03-16T03:17:11.159Z,4.40
2018-03-16T03:19:38.670Z,4.50
2018-03-16T03:22:06.893Z,4.50
2018-03-16T03:24:34.363Z,4.50
2018-03-16T03:27:02.631Z,4.80
2018-03-16T03:29:30.108Z,4.70
2018-03-16T03:31:58.362Z,4.40
2018-03-16T03:34:25.830Z,4.50
2018-03-16T03:36:53.306Z,4.80
2018-03-16T03:39:21.543Z,4.50
2018-03-16T03:41:49.033Z,4.50
2018-03-16T03:44:17.255Z,4.80
2018-03-16T03:46:44.735Z,4.70
2018-03-16T03:49:13.118Z,4.50
2018-03-16T03:51:40.599Z,4.50
2018-03-16T03:54:08.840Z,4.50
2018-03-16T03:56:36.324Z,4.40
2018-03-16T03:59:03.791Z,4.50
2018-03-16T04:01:32.046Z,4.40
2018-03-16T04:03:59.519Z,4.40
2018-03-16T04:06:27.000Z,4.40
2018-03-16T04:08:55.258Z,4.40
2018-03-16T04:11:23.517Z,4.20
2018-03-16T04:13:50.983Z,4.50
2018-03-16T04:16:18.465Z,4.30
2018-03-16T04:18:46.702Z,4.30
2018-03-16T04:21:14.175Z,4.50
2018-03-16T04:23:41.650Z,4.30
2018-03-16T04:26:09.889Z,4.30
2018-03-16T04:28:37.375Z,4.60
2018-03-16T04:31:04.889Z,4.50
2018-03-16T04:33:32.350Z,4.40
2018-03-16T04:35:59.828Z,4.30
2018-03-16T04:38:27.311Z,4.20
2018-03-16T04:40:55.558Z,4.20
2018-03-16T04:43:23.042Z,4.20
2018-03-16T04:45:50.515Z,4.20
2018-03-16T04:48:18.771Z,4.10
2018-03-16T04:50:46.239Z,4.10
2018-03-16T04:53:14.491Z,4.30
2018-03-16T04:55:41.966Z,4.20
2018-03-16T04:58:09.447Z,4.20
2018-03-16T05:00:37.707Z,4.10
2018-03-16T05:03:05.178Z,4.20
2018-03-16T05:05:33.418Z,4.10
2018-03-16T05:08:00.896Z,4.20
2018-03-16T05:10:28.387Z,4.10
2018-03-16T05:12:55.893Z,4.10
2018-03-16T05:15:23.368Z,4.10
2018-03-16T05:17:54.599Z,4.10
2018-03-16T05:20:22.076Z,4.20
2018-03-16T05:22:49.563Z,4.10
2018-03-16T05:25:17.051Z,4.10
2018-03-16T05:27:44.527Z,4.00
2018-03-16T05:30:11.994Z,4.20
2018-03-16T05:32:39.479Z,4.00
2018-03-16T05:35:07.718Z,4.00
2018-03-16T05:37:35.203Z,4.10
2018-03-16T05:40:02.669Z,4.20
2018-03-16T05:42:30.915Z,4.00
2018-03-16T05:44:58.383Z,4.20
2018-03-16T05:47:25.868Z,3.90
2018-03-16T05:49:54.103Z,4.30
2018-03-16T05:52:21.588Z,4.10
2018-03-16T05:54:49.042Z,4.00
2018-03-16T05:57:16.530Z,4.00
2018-03-16T05:59:44.002Z,4.40
2018-03-16T06:02:11.483Z,4.10
2018-03-16T06:04:38.964Z,4.10
2018-03-16T06:07:06.438Z,4.20
2018-03-16T06:09:34.670Z,4.10
2018-03-16T06:12:02.148Z,4.10
2018-03-16T06:14:29.621Z,4.10
2018-03-16T06:16:57.128Z,4.00
2018-03-16T06:19:24.608Z,4.30
2018-03-16T06:21:52.079Z,4.00
2018-03-16T06:24:19.590Z,3.90
2018-03-16T06:26:47.064Z,4.20
2018-03-16T06:29:14.531Z,4.10
2018-03-16T06:31:41.999Z,4.30
2018-03-16T06:34:09.496Z,3.90
2018-03-16T06:36:36.971Z,3.90
2018-03-16T06:39:05.875Z,3.60
2018-03-16T06:41:33.347Z,3.50
2018-03-16T06:44:00.852Z,3.70
2018-03-16T06:46:28.322Z,3.60
2018-03-16T06:48:55.815Z,3.70
2018-03-16T06:51:23.298Z,3.70
2018-03-16T06:53:50.779Z,3.30
2018-03-16T06:56:18.231Z,3.60
2018-03-16T06:58:46.503Z,3.50
2018-03-16T07:01:14.031Z,3.60
2018-03-16T07:03:41.516Z,3.40
2018-03-16T07:06:08.978Z,3.40
2018-03-16T07:08:36.480Z,3.40
2018-03-16T07:11:03.918Z,3.10
2018-03-16T07:13:31.399Z,3.30
2018-03-16T07:15:59.626Z,3.50
2018-03-16T07:18:27.114Z,3.20
2018-03-16T07:20:54.600Z,3.10
2018-03-16T07:23:22.068Z,3.00
2018-03-16T07:25:50.924Z,3.30
2018-03-16T07:28:18.396Z,3.10
2018-03-16T07:30:46.633Z,3.00
2018-03-16T07:33:14.884Z,3.20
2018-03-16T07:35:42.358Z,3.20
2018-03-16T07:38:09.856Z,3.00
2018-03-16T07:40:37.306Z,3.10
2018-03-16T07:43:04.788Z,3.10
2018-03-16T07:45:38.613Z,3.00
2018-03-16T07:48:06.079Z,3.10
2018-03-16T07:50:33.555Z,3.00
2018-03-16T07:53:01.048Z,3.00
2018-03-16T07:55:28.504Z,2.90
2018-03-16T07:57:55.984Z,2.90
2018-03-16T08:00:24.227Z,3.10
2018-03-16T08:02:52.103Z,3.10
2018-03-16T08:05:19.587Z,2.80
2018-03-16T08:07:47.835Z,2.80
2018-03-16T08:10:15.814Z,3.10
2018-03-16T08:12:43.293Z,2.80
2018-03-16T08:15:11.585Z,2.80
2018-03-16T08:17:39.010Z,2.80
2018-03-16T08:20:08.375Z,2.80
2018-03-16T08:22:35.871Z,2.70
2018-03-16T08:25:04.113Z,2.80
2018-03-16T08:27:31.587Z,2.70
2018-03-16T08:29:59.058Z,2.80
2018-03-16T08:32:26.524Z,2.70
2018-03-16T08:34:54.776Z,2.80
2018-03-16T08:37:22.256Z,2.80
2018-03-16T08:39:50.507Z,2.70
2018-03-16T08:42:17.979Z,2.80
2018-03-16T08:44:45.454Z,2.70
2018-03-16T08:47:13.696Z,2.70
2018-03-16T08:49:41.191Z,2.80
2018-03-16T08:52:09.418Z,2.80
2018-03-16T08:54:36.942Z,3.00
2018-03-16T08:57:05.177Z,2.70
2018-03-16T08:59:32.667Z,2.90
2018-03-16T09:02:00.911Z,2.60
2018-03-16T09:04:28.396Z,2.80
2018-03-16T09:06:56.636Z,2.70
2018-03-16T09:09:24.144Z,2.60
2018-03-16T09:11:51.638Z,2.80
2018-03-16T09:14:19.129Z,3.20
2018-03-16T09:16:46.604Z,2.80
2018-03-16T09:19:14.860Z,3.20
2018-03-16T09:21:42.323Z,2.80
2018-03-16T09:24:09.809Z,2.80
2018-03-16T09:26:37.280Z,3.00
2018-03-16T09:29:04.761Z,3.10
2018-03-16T09:31:32.256Z,2.80
2018-03-16T09:33:59.735Z,2.80
2018-03-16T09:36:27.970Z,2.70
2018-03-16T09:38:55.710Z,2.70
2018-03-16T09:41:23.171Z,3.00
2018-03-16T09:43:50.646Z,3.10
2018-03-16T09:46:18.132Z,2.80
2018-03-16T09:48:45.608Z,3.00
2018-03-16T09:51:13.838Z,2.90
2018-03-16T09:53:41.314Z,3.00
2018-03-16T09:56:08.797Z,3.00
2018-03-16T09:58:37.040Z,3.20
2018-03-16T10:01:04.510Z,3.00
2018-03-16T10:03:31.991Z,2.90
2018-03-16T10:06:00.237Z,3.00
2018-03-16T10:08:27.708Z,2.70
2018-03-16T10:10:55.185Z,2.60
2018-03-16T10:13:23.469Z,2.50
2018-03-16T10:15:51.704Z,2.80
2018-03-16T10:18:19.183Z,2.60
2018-03-16T10:20:46.651Z,2.70
2018-03-16T10:23:14.894Z,2.80
2018-03-16T10:25:42.359Z,2.60
2018-03-16T10:28:09.853Z,3.00
2018-03-16T10:30:38.119Z,2.70
2018-03-16T10:33:06.377Z,2.70
2018-03-16T10:35:33.855Z,2.70
2018-03-16T10:38:02.100Z,2.70
2018-03-16T10:40:29.593Z,2.90
2018-03-16T10:42:57.831Z,2.70
2018-03-16T10:45:25.301Z,2.50
2018-03-16T10:47:52.777Z,2.50
2018-03-16T10:50:20.252Z,2.50
2018-03-16T10:52:47.734Z,2.60
2018-03-16T10:55:15.226Z,2.40
2018-03-16T10:57:42.697Z,2.60
2018-03-16T11:00:10.179Z,2.50
2018-03-16T11:02:44.016Z,2.70
2018-03-16T11:05:17.228Z,2.50
2018-03-16T11:08:08.115Z,2.70
2018-03-16T11:10:35.605Z,2.70
2018-03-16T11:13:03.079Z,2.50
2018-03-16T11:15:30.562Z,2.80
2018-03-16T11:17:58.791Z,2.80
2018-03-16T11:20:26.266Z,3.00
2018-03-16T11:22:53.734Z,2.90
2018-03-16T11:25:21.212Z,3.00
2018-03-16T11:27:49.439Z,2.70
2018-03-16T11:30:16.913Z,2.80
2018-03-16T11:32:44.396Z,2.70
2018-03-16T11:35:12.638Z,2.60
2018-03-16T11:37:40.388Z,2.50
2018-03-16T11:40:07.873Z,2.50
2018-03-16T11:42:35.338Z,2.60
2018-03-16T11:45:02.828Z,2.70
2018-03-16T11:47:30.320Z,2.40
2018-03-16T11:49:57.790Z,2.60
2018-03-16T11:52:25.272Z,2.70
2018-03-16T11:54:52.745Z,2.60
2018-03-16T11:57:20.973Z,2.60
2018-03-16T11:59:48.454Z,2.70
2018-03-16T12:02:15.920Z,2.50
2018-03-16T12:04:43.398Z,2.60
2018-03-16T12:07:11.642Z,2.60
2018-03-16T12:09:39.124Z,2.70
2018-03-16T12:12:06.582Z,2.60
2018-03-16T12:14:34.836Z,2.50
2018-03-16T12:17:02.314Z,2.40
2018-03-16T12:19:30.029Z,2.70
2018-03-16T12:21:57.500Z,2.60
2018-03-16T12:24:24.967Z,2.70
2018-03-16T12:26:52.455Z,2.60
2018-03-16T12:29:20.722Z,2.50
2018-03-16T12:31:48.183Z,2.60
2018-03-16T12:34:15.662Z,2.70
2018-03-16T12:36:43.898Z,3.00
2018-03-16T12:39:11.369Z,3.00
2018-03-16T12:41:38.850Z,2.90
2018-03-16T12:44:07.105Z,2.90
2018-03-16T12:46:34.580Z,2.90
2018-03-16T12:49:02.815Z,3.10
2018-03-16T12:51:30.304Z,3.00
2018-03-16T12:53:57.763Z,3.00
2018-03-16T12:56:25.230Z,2.90
2018-03-16T12:58:53.482Z,3.10
2018-03-16T13:01:20.961Z,2.90
2018-03-16T13:03:49.194Z,3.10
2018-03-16T13:06:16.666Z,3.20
2018-03-16T13:08:44.135Z,2.90
2018-03-16T13:11:11.609Z,2.80
2018-03-16T13:13:39.070Z,3.10
2018-03-16T13:16:07.330Z,2.90
2018-03-16T13:18:34.798Z,2.80
2018-03-16T13:21:02.266Z,2.60
2018-03-16T13:23:30.494Z,2.60
2018-03-16T13:25:57.986Z,2.70
2018-03-16T13:28:25.469Z,2.50
2018-03-16T13:30:53.725Z,2.40
2018-03-16T13:33:21.178Z,2.40
2018-03-16T13:35:48.660Z,2.60
2018-03-16T13:38:16.902Z,2.10
2018-03-16T13:40:44.391Z,2.30
2018-03-16T13:43:12.647Z,2.10
2018-03-16T13:45:40.142Z,2.10
2018-03-16T13:48:07.602Z,2.20
2018-03-16T13:50:35.076Z,2.20
2018-03-16T13:53:02.556Z,2.40
2018-03-16T13:55:30.044Z,2.20
2018-03-16T13:57:57.549Z,2.20
2018-03-16T14:00:25.754Z,2.30
2018-03-16T14:02:53.226Z,2.20
2018-03-16T14:05:20.725Z,2.50
2018-03-16T14:07:48.963Z,2.40
2018-03-16T14:10:16.510Z,2.10
2018-03-16T14:12:43.937Z,2.20
2018-03-16T14:15:11.420Z,2.10
2018-03-16T14:17:38.916Z,2.40
2018-03-16T14:20:07.155Z,2.50
2018-03-16T14:22:34.628Z,2.40
2018-03-16T14:25:02.099Z,2.40
2018-03-16T14:27:29.558Z,2.30
2018-03-16T14:29:57.805Z,2.20
2018-03-16T14:32:25.272Z,2.30
2018-03-16T14:34:52.747Z,2.40
2018-03-16T14:37:20.263Z,2.30
2018-03-16T14:39:47.746Z,2.30
2018-03-16T14:42:15.247Z,2.20
2018-03-16T14:44:42.699Z,2.10
2018-03-16T14:47:10.197Z,2.00
2018-03-16T14:49:37.681Z,1.80
2018-03-16T14:52:05.161Z,2.00
2018-03-16T14:54:33.413Z,1.90
2018-03-16T14:57:00.895Z,1.90
2018-03-16T14:59:28.360Z,2.00
2018-03-16T15:01:56.607Z,1.80
2018-03-16T15:04:24.080Z,1.80
2018-03-16T15:06:51.584Z,2.00
2018-03-16T15:09:19.056Z,2.00
2018-03-16T15:11:46.532Z,1.80
2018-03-16T15:14:13.998Z,1.70
2018-03-16T15:16:41.479Z,1.80
2018-03-16T15:19:10.568Z,1.80
2018-03-16T15:21:38.095Z,1.70
2018-03-16T15:24:06.290Z,1.70
2018-03-16T15:26:33.770Z,1.50
2018-03-16T15:29:01.237Z,1.90
2018-03-16T15:31:29.489Z,1.50
2018-03-16T15:33:56.950Z,1.70
2018-03-16T15:36:24.437Z,1.80
2018-03-16T15:38:52.659Z,1.60
2018-03-16T15:41:20.146Z,1.50
2018-03-16T15:43:48.274Z,1.70
2018-03-16T15:46:15.770Z,1.50
2018-03-16T15:48:43.242Z,1.50
2018-03-16T15:51:11.502Z,1.60
2018-03-16T15:53:38.974Z,1.50
2018-03-16T15:56:06.444Z,1.60
2018-03-16T15:58:34.682Z,1.50
2018-03-16T16:01:02.165Z,1.60
2018-03-16T16:03:29.628Z,1.40
2018-03-16T16:05:57.883Z,1.60
2018-03-16T16:08:25.356Z,1.50
2018-03-16T16:10:52.845Z,1.30
2018-03-16T16:13:20.303Z,1.60
2018-03-16T16:15:47.824Z,1.60
2018-03-16T16:18:15.339Z,1.50
2018-03-16T16:20:42.841Z,1.50
2018-03-16T16:23:10.312Z,1.60
2018-03-16T16:25:40.274Z,1.30
2018-03-16T16:28:07.764Z,1.40
2018-03-16T16:30:35.236Z,1.20
2018-03-16T16:33:02.703Z,1.30
2018-03-16T16:35:30.962Z,1.30
2018-03-16T16:37:58.447Z,1.00
2018-03-16T16:40:26.766Z,1.10
2018-03-16T16:42:54.238Z,1.20
2018-03-16T16:45:21.757Z,1.00
2018-03-16T16:47:50.780Z,1.00
2018-03-16T16:50:18.255Z,1.40
2018-03-16T16:52:45.749Z,1.40
2018-03-16T16:55:14.070Z,1.30
2018-03-16T16:57:43.024Z,1.30
2018-03-16T17:00:11.263Z,1.30
2018-03-16T17:02:38.802Z,1.30
2018-03-16T17:05:06.289Z,1.30
2018-03-16T17:07:34.647Z,1.40
2018-03-16T17:10:02.129Z,1.30
2018-03-16T17:12:29.623Z,1.20
2018-03-16T17:14:57.097Z,0.90
2018-03-16T17:17:24.586Z,1.00
2018-03-16T17:19:52.060Z,0.90
2018-03-16T17:22:19.551Z,0.90
2018-03-16T17:24:48.164Z,0.90
2018-03-16T17:27:15.669Z,1.10
2018-03-16T17:29:43.177Z,1.10
2018-03-16T17:32:10.684Z,0.90
2018-03-16T17:34:38.281Z,0.50
2018-03-16T17:37:05.794Z,0.90
2018-03-16T17:39:33.334Z,0.50
2018-03-16T17:42:00.819Z,0.40
2018-03-16T17:44:28.297Z,0.50
2018-03-16T17:46:56.559Z,0.50
2018-03-16T17:49:24.025Z,0.40
2018-03-16T17:51:52.274Z,0.40
2018-03-16T17:54:19.753Z,0.20
2018-03-16T17:56:47.240Z,0.30
2018-03-16T17:59:14.716Z,0.30
2018-03-16T18:01:42.194Z,0.30
2018-03-16T18:04:09.654Z,0.50
2018-03-16T18:06:37.171Z,0.50
2018-03-16T18:09:04.660Z,0.30
2018-03-16T18:11:32.142Z,0.60
2018-03-16T18:13:59.639Z,0.30
2018-03-16T18:16:27.901Z,0.00
2018-03-16T18:18:56.143Z,0.20
2018-03-16T18:21:23.618Z,0.10
2018-03-16T18:23:51.096Z,0.30
2018-03-16T18:26:20.958Z,0.20
2018-03-16T18:28:48.457Z,0.50
2018-03-16T18:31:15.909Z,0.10
2018-03-16T18:33:43.464Z,0.00
2018-03-16T18:36:10.928Z,0.10
2018-03-16T18:38:38.820Z,-0.10
2018-03-16T18:41:07.062Z,-0.10
2018-03-16T18:43:35.674Z,0.00
2018-03-16T18:46:03.898Z,0.10
2018-03-16T18:48:31.431Z,0.10
2018-03-16T18:50:58.904Z,0.00
2018-03-16T18:53:26.502Z,0.10
2018-03-16T18:55:54.788Z,-0.10
2018-03-16T18:58:22.279Z,-0.20
2018-03-16T19:00:50.520Z,0.10
2018-03-16T19:03:18.000Z,0.00
2018-03-16T19:05:46.226Z,0.00
2018-03-16T19:08:13.726Z,0.00
2018-03-16T19:10:41.206Z,0.10
2018-03-16T19:13:08.752Z,-0.20
2018-03-16T19:15:37.008Z,-0.20
2018-03-16T19:18:04.491Z,-0.20
2018-03-16T19:20:32.727Z,0.00
2018-03-16T19:23:00.215Z,0.00
2018-03-16T19:25:28.461Z,0.00
2018-03-16T19:27:55.967Z,-0.10
2018-03-16T19:30:23.435Z,0.00
2018-03-16T19:32:50.919Z,0.00
2018-03-16T19:35:19.343Z,0.00
2018-03-16T19:37:47.625Z,0.10
2018-03-16T19:40:15.092Z,0.10
2018-03-16T19:42:43.331Z,0.10
2018-03-16T19:45:10.791Z,0.00
2018-03-16T19:47:38.289Z,0.00
2018-03-16T19:50:06.534Z,0.00
2018-03-16T19:52:34.024Z,-0.20
2018-03-16T19:55:01.562Z,-0.10
2018-03-16T19:57:29.113Z,-0.10
2018-03-16T19:59:56.585Z,-0.10
2018-03-16T20:02:25.543Z,0.20
2018-03-16T20:04:53.007Z,0.10
2018-03-16T20:07:20.496Z,0.00
2018-03-16T20:09:48.736Z,-0.10
2018-03-16T20:12:16.227Z,0.10
2018-03-16T20:14:44.482Z,0.00
2018-03-16T20:17:12.013Z,-0.20
2018-03-16T20:19:40.242Z,-0.20
2018-03-16T20:22:08.487Z,-0.10
2018-03-16T20:24:35.966Z,0.00
2018-03-16T20:27:03.475Z,0.00
2018-03-16T20:29:31.014Z,-0.10
2018-03-16T20:31:58.495Z,0.00
2018-03-16T20:34:25.986Z,0.10
2018-03-16T20:36:53.470Z,-0.20
2018-03-16T20:39:21.727Z,-0.40
2018-03-16T20:41:49.227Z,-0.10
2018-03-16T20:44:16.707Z,0.00
2018-03-16T20:46:44.245Z,0.00
2018-03-16T20:49:11.744Z,-0.20
2018-03-16T20:51:39.225Z,-0.20
2018-03-16T20:54:07.070Z,-0.40
2018-03-16T20:56:34.559Z,-0.10
2018-03-16T20:59:02.076Z,-0.20
2018-03-16T21:01:29.568Z,-0.30
2018-03-16T21:03:57.081Z,-0.20
2018-03-16T21:06:24.603Z,-0.40
2018-03-16T21:08:52.874Z,-0.20
2018-03-16T21:11:21.131Z,-0.20
2018-03-16T21:13:48.640Z,-0.30
2018-03-16T21:16:16.122Z,-0.20
2018-03-16T21:18:43.664Z,-0.20
2018-03-16T21:21:11.170Z,-0.50
2018-03-16T21:23:38.646Z,-0.60
2018-03-16T21:26:06.894Z,0.00
2018-03-16T21:28:34.370Z,-0.50
2018-03-16T21:31:01.867Z,-0.30
2018-03-16T21:33:29.350Z,-0.40
2018-03-16T21:35:56.854Z,-0.60
2018-03-16T21:38:25.108Z,-0.20
2018-03-16T21:40:52.591Z,-0.20
2018-03-16T21:43:20.854Z,-0.20
2018-03-16T21:45:52.202Z,-0.30
2018-03-16T21:48:19.682Z,-0.30
2018-03-16T21:50:47.972Z,-0.10
2018-03-16T21:53:15.470Z,-0.40
2018-03-16T21:55:45.893Z,-0.30
2018-03-16T21:58:15.118Z,-0.30
2018-03-16T22:00:42.607Z,-0.20
2018-03-16T22:03:10.890Z,-0.20
2018-03-16T22:05:38.373Z,-0.20
2018-03-16T22:08:05.859Z,-0.40
2018-03-16T22:10:33.342Z,-0.30
2018-03-16T22:13:01.651Z,-0.50
2018-03-16T22:15:29.127Z,-0.20
2018-03-16T22:17:56.638Z,-0.20
2018-03-16T22:20:24.113Z,-0.50
2018-03-16T22:22:51.589Z,-0.30
2018-03-16T22:25:19.074Z,-0.30
2018-03-16T22:27:46.560Z,-0.30
2018-03-16T22:30:14.071Z,-0.40
2018-03-16T22:32:41.547Z,-0.50
2018-03-16T22:35:09.597Z,-0.70
2018-03-16T22:37:37.062Z,-0.30
2018-03-16T22:40:04.578Z,-0.30
2018-03-16T22:42:32.047Z,-0.30
2018-03-16T22:45:00.308Z,-0.60
2018-03-16T22:47:28.569Z,-0.30
2018-03-16T22:49:56.056Z,-0.30
2018-03-16T22:52:24.300Z,-0.60
2018-03-16T22:54:51.787Z,-0.30
2018-03-16T22:57:20.040Z,-0.30
2018-03-16T22:59:47.522Z,-0.40
2018-03-16T23:02:15.802Z,-0.40
2018-03-16T23:04:44.042Z,-0.10
2018-03-16T23:07:11.615Z,-0.10
2018-03-16T23:09:39.104Z,-0.20
2018-03-16T23:12:07.344Z,-0.80
2018-03-16T23:14:34.844Z,-0.40
2018-03-16T23:17:02.324Z,-0.80
2018-03-16T23:19:29.798Z,-0.70
2018-03-16T23:21:57.278Z,-0.70
2018-03-16T23:24:24.768Z,-0.80
2018-03-16T23:26:53.002Z,-1.00
2018-03-16T23:29:20.497Z,-1.10
2018-03-16T23:31:48.730Z,-1.20
2018-03-16T23:34:16.211Z,-0.90
2018-03-16T23:36:43.685Z,-0.80
2018-03-16T23:39:11.929Z,-1.00
2018-03-16T23:41:39.412Z,-0.90
2018-03-16T23:44:06.891Z,-1.30
2018-03-16T23:46:35.130Z,-1.20
2018-03-16T23:49:02.611Z,-1.30
2018-03-16T23:51:30.847Z,-1.50
2018-03-16T23:53:58.323Z,-1.60
2018-03-16T23:56:25.790Z,-1.20
2018-03-16T23:58:53.299Z,-1.10
